Flight Track Log - Related Links

Times and Time Zones

All times are in EDT time to prevent confusion due to time zone crossing. See the XOJ552 flight status page for this flight to view local times or setup timezone preferences in your user account.

Time Position Orientation Groundspeed Altitude Reporting Facility
EDT Latitude Longitude Course Direction KTS MPH feet Rate Location/Type
Fri 11:55:59 PM 29.6544 -95.3372 298° West 264 304 3,600  Level Houston Center
Fri 11:57:00 PM 29.7236 -95.3122 17° North 268 308 8,800 4,667 Climbing Houston Center
Fri 11:58:05 PM 29.7889 -95.2533 38° Northeast 276 318 13,400 4,286 Climbing Houston Center
Fri 11:59:06 PM 29.8508 -95.1828 45° Northeast 306 352 17,800 3,372 Climbing Houston Center
Sat 12:00:06 AM 29.9144 -95.1169 42° Northeast 306 352 20,200 1,983 Climbing Houston Center
Sat 12:01:07 AM 29.9858 -95.0311 46° Northeast 367 422 21,800 885 Climbing Houston Center
Sat 12:02:08 AM 30.0664 -94.9317 47° Northeast 419 482 22,000 99 Climbing Houston Center
Sat 12:03:08 AM 30.1583 -94.8206 46° Northeast 474 545 22,000 1,339 Level Houston Center
Sat 12:04:09 AM 30.2794 -94.7625 22° Northeast 464 534 24,700 2,852 Climbing Houston Center
Sat 12:05:10 AM 30.3997 -94.7175 18° North 454 522 27,800 3,322 Climbing Houston Center
Sat 12:06:10 AM 30.5072 -94.6739 19° North 428 493 31,400 3,174 Climbing Houston Center
Sat 12:07:11 AM 30.6139 -94.6417 15° North 402 463 34,200 2,182 Climbing Houston Center
Sat 12:08:11 AM 30.7281 -94.6442 359° North 412 474 35,800 1,438 Climbing Houston Center
Sat 12:09:12 AM 30.8203 -94.7153 326° Northwest 396 456 37,100 1,339 Climbing Houston Center
Sat 12:10:12 AM 30.9033 -94.8047 317° Northwest 400 460 38,500 1,438 Climbing Houston Center
Sat 12:11:13 AM 30.9853 -94.8922 318° Northwest 397 457 40,000 744 Climbing Houston Center
Sat 12:12:13 AM 31.0658 -94.9814 317° Northwest 392 451 40,000  Level Houston Center
Sat 12:13:14 AM 31.1492 -95.0711 317° Northwest 397 457 40,000  Level Houston Center
Sat 12:14:14 AM 31.2331 -95.1611 317° Northwest 404 465 40,000  Level Houston Center
Sat 12:14:37 AM 31.2650 -95.2017 313° West 411 473 40,000  Level Fort Worth Center
Sat 12:15:37 AM 31.3458 -95.2875 318° Northwest 404 465 40,000  Level Fort Worth Center
Sat 12:16:37 AM 31.4369 -95.3803 319° Northwest 399 459 40,000  Level Fort Worth Center
Sat 12:17:37 AM 31.5156 -95.4686 316° Northwest 394 453 40,000 -1,500 Level Fort Worth Center
Sat 12:18:37 AM 31.5942 -95.5550 317° Northwest 379 436 37,000 -2,900 Descending Fort Worth Center
Sat 12:19:37 AM 31.6750 -95.6461 316° Northwest 390 449 34,200 -2,750 Descending Fort Worth Center
Sat 12:20:37 AM 31.7511 -95.7300 317° Northwest 404 465 31,500 -2,750 Descending Fort Worth Center
Sat 12:21:37 AM 31.8317 -95.8214 316° Northwest 404 465 28,700 -2,800 Descending Fort Worth Center
Sat 12:22:37 AM 31.9081 -95.9083 316° Northwest 399 459 25,900 -2,900 Descending Fort Worth Center
Sat 12:23:37 AM 31.9947 -96.0025 317° Northwest 394 453 22,900 -2,600 Descending Fort Worth Center
Sat 12:24:37 AM 32.0622 -96.0775 317° Northwest 388 447 20,700 -2,450 Descending Fort Worth Center
Sat 12:25:37 AM 32.1383 -96.1622 317° Northwest 371 427 18,000 -2,600 Descending Fort Worth Center
Sat 12:26:37 AM 32.2142 -96.2372 320° Northwest 365 420 15,500 -2,600 Descending Fort Worth Center
Sat 12:27:37 AM 32.3022 -96.2878 334° Northwest 333 383 12,800 -2,350 Descending Fort Worth Center
Sat 12:28:37 AM 32.3800 -96.3358 332° Northwest 318 366 10,800 -2,000 Descending Fort Worth Center
Sat 12:29:37 AM 32.4431 -96.3942 322° Northwest 299 344 8,800 -900 Descending Fort Worth Center
Sat 12:30:37 AM 32.5042 -96.4575 319° Northwest 294 338 9,000 -600 Climbing Fort Worth Center
Sat 12:31:37 AM 32.5608 -96.5211 317° Northwest 283 326 7,600 -1,600 Descending Fort Worth Center
Sat 12:32:37 AM 32.6156 -96.5822 317° Northwest 276 318 5,800 -1,934 Descending Fort Worth Center
Sat 12:33:38 AM 32.6725 -96.6433 318° Northwest 276 318 3,700 -1,556 Descending Fort Worth Center
Sat 12:34:25 AM 32.7167 -96.6833 323° Northwest 247 284 3,000 -617 Descending Dallas / Fort Worth TRACON
Sat 12:35:25 AM 32.7500 -96.7333 308° West 210 242 2,600 -450 Descending Dallas / Fort Worth TRACON
Sat 12:36:25 AM 32.7833 -96.7833 308° West 156 180 2,100 -737 Descending Dallas / Fort Worth TRACON
Sat 12:37:19 AM 32.8167 -96.8000 337° Northwest 130 150 1,200 -1,000 Descending Dallas / Fort Worth TRACON
Sat 12:43:00 AM 32.8333 -96.8500 301° West  Level FlightAware Approximate
Sat 12:50:00 AM 32.8471 -96.8518 301° West  Level Estimated

Login

Don't have an account? Register now (free) for customized features, flight alerts, and more!